sensor_id;sensor_type;location;lat;lon;timestamp;P1;durP1;ratioP1;P2;durP2;ratioP2
40501;SDS011;29631;49.168;9.848;2023-03-21T00:01:10;2.30;;;2.20;;
40501;SDS011;29631;49.168;9.848;2023-03-21T00:03:37;3.40;;;1.95;;
40501;SDS011;29631;49.168;9.848;2023-03-21T00:06:07;1.92;;;1.83;;
40501;SDS011;29631;49.168;9.848;2023-03-21T00:08:35;1.75;;;1.70;;
40501;SDS011;29631;49.168;9.848;2023-03-21T00:11:04;2.17;;;2.08;;
40501;SDS011;29631;49.168;9.848;2023-03-21T00:13:32;5.25;;;2.30;;
40501;SDS011;29631;49.168;9.848;2023-03-21T00:16:03;2.28;;;2.10;;
40501;SDS011;29631;49.168;9.848;2023-03-21T00:18:31;1.92;;;1.83;;
40501;SDS011;29631;49.168;9.848;2023-03-21T00:20:57;1.88;;;1.77;;
40501;SDS011;29631;49.168;9.848;2023-03-21T00:23:26;2.20;;;2.10;;
40501;SDS011;29631;49.168;9.848;2023-03-21T00:25:52;2.00;;;1.90;;
40501;SDS011;29631;49.168;9.848;2023-03-21T00:28:18;2.20;;;2.10;;
40501;SDS011;29631;49.168;9.848;2023-03-21T00:30:45;2.15;;;1.95;;
40501;SDS011;29631;49.168;9.848;2023-03-21T00:33:11;2.20;;;1.60;;
40501;SDS011;29631;49.168;9.848;2023-03-21T00:35:38;2.03;;;1.90;;
40501;SDS011;29631;49.168;9.848;2023-03-21T00:38:08;1.80;;;1.70;;
40501;SDS011;29631;49.168;9.848;2023-03-21T00:40:35;2.15;;;1.70;;
40501;SDS011;29631;49.168;9.848;2023-03-21T00:43:00;2.15;;;2.05;;
40501;SDS011;29631;49.168;9.848;2023-03-21T00:45:26;2.38;;;2.28;;
40501;SDS011;29631;49.168;9.848;2023-03-21T00:47:52;2.00;;;1.90;;
40501;SDS011;29631;49.168;9.848;2023-03-21T00:50:18;2.03;;;1.92;;
40501;SDS011;29631;49.168;9.848;2023-03-21T00:52:43;2.10;;;1.90;;
40501;SDS011;29631;49.168;9.848;2023-03-21T00:55:13;2.10;;;2.00;;
40501;SDS011;29631;49.168;9.848;2023-03-21T00:57:41;2.17;;;2.08;;
40501;SDS011;29631;49.168;9.848;2023-03-21T01:00:08;2.20;;;2.10;;
40501;SDS011;29631;49.168;9.848;2023-03-21T01:02:37;2.30;;;2.10;;
40501;SDS011;29631;49.168;9.848;2023-03-21T01:05:06;2.13;;;1.95;;
40501;SDS011;29631;49.168;9.848;2023-03-21T01:07:35;1.80;;;1.70;;
40501;SDS011;29631;49.168;9.848;2023-03-21T01:10:01;2.20;;;2.00;;
40501;SDS011;29631;49.168;9.848;2023-03-21T01:12:28;2.10;;;1.95;;
40501;SDS011;29631;49.168;9.848;2023-03-21T01:14:53;2.35;;;2.15;;
40501;SDS011;29631;49.168;9.848;2023-03-21T01:17:19;2.60;;;2.20;;
40501;SDS011;29631;49.168;9.848;2023-03-21T01:19:45;2.20;;;2.03;;
40501;SDS011;29631;49.168;9.848;2023-03-21T01:22:11;2.10;;;2.00;;
40501;SDS011;29631;49.168;9.848;2023-03-21T01:24:36;3.00;;;2.30;;
40501;SDS011;29631;49.168;9.848;2023-03-21T01:27:02;3.85;;;2.10;;
40501;SDS011;29631;49.168;9.848;2023-03-21T01:29:28;2.40;;;2.20;;
40501;SDS011;29631;49.168;9.848;2023-03-21T01:31:54;2.50;;;2.38;;
40501;SDS011;29631;49.168;9.848;2023-03-21T01:34:20;2.15;;;2.05;;
40501;SDS011;29631;49.168;9.848;2023-03-21T01:36:46;2.17;;;2.08;;
40501;SDS011;29631;49.168;9.848;2023-03-21T01:39:11;2.17;;;1.85;;
40501;SDS011;29631;49.168;9.848;2023-03-21T01:41:38;2.90;;;1.90;;
40501;SDS011;29631;49.168;9.848;2023-03-21T01:44:08;2.28;;;2.13;;
40501;SDS011;29631;49.168;9.848;2023-03-21T01:52:05;2.70;;;2.40;;
40501;SDS011;29631;49.168;9.848;2023-03-21T01:54:35;2.83;;;2.05;;
40501;SDS011;29631;49.168;9.848;2023-03-21T01:57:06;2.40;;;2.30;;
40501;SDS011;29631;49.168;9.848;2023-03-21T01:59:42;2.70;;;2.50;;
40501;SDS011;29631;49.168;9.848;2023-03-21T02:02:16;3.38;;;2.40;;
40501;SDS011;29631;49.168;9.848;2023-03-21T02:04:51;2.30;;;2.20;;
40501;SDS011;29631;49.168;9.848;2023-03-21T02:07:24;2.65;;;2.55;;
40501;SDS011;29631;49.168;9.848;2023-03-21T02:10:00;2.15;;;1.98;;
40501;SDS011;29631;49.168;9.848;2023-03-21T02:12:29;3.78;;;2.47;;
40501;SDS011;29631;49.168;9.848;2023-03-21T02:14:56;2.45;;;2.28;;
40501;SDS011;29631;49.168;9.848;2023-03-21T02:17:32;2.47;;;2.30;;
40501;SDS011;29631;49.168;9.848;2023-03-21T02:20:26;2.25;;;2.15;;
40501;SDS011;29631;49.168;9.848;2023-03-21T02:23:39;2.33;;;2.20;;
40501;SDS011;29631;49.168;9.848;2023-03-21T02:29:51;2.47;;;2.28;;
40501;SDS011;29631;49.168;9.848;2023-03-21T02:44:58;2.72;;;2.53;;
40501;SDS011;29631;49.168;9.848;2023-03-21T02:47:10;2.72;;;2.53;;
40501;SDS011;29631;49.168;9.848;2023-03-21T02:50:11;3.03;;;2.83;;
40501;SDS011;29631;49.168;9.848;2023-03-21T02:52:47;3.15;;;2.95;;
40501;SDS011;29631;49.168;9.848;2023-03-21T02:55:18;3.10;;;2.78;;
40501;SDS011;29631;49.168;9.848;2023-03-21T02:57:53;3.05;;;2.85;;
40501;SDS011;29631;49.168;9.848;2023-03-21T03:00:23;4.18;;;3.38;;
40501;SDS011;29631;49.168;9.848;2023-03-21T03:02:53;3.33;;;3.13;;
40501;SDS011;29631;49.168;9.848;2023-03-21T03:05:20;3.58;;;3.28;;
40501;SDS011;29631;49.168;9.848;2023-03-21T03:10:39;3.00;;;2.80;;
40501;SDS011;29631;49.168;9.848;2023-03-21T03:19:29;3.15;;;2.95;;
40501;SDS011;29631;49.168;9.848;2023-03-21T03:22:09;3.03;;;2.83;;
40501;SDS011;29631;49.168;9.848;2023-03-21T03:27:28;3.05;;;2.80;;
40501;SDS011;29631;49.168;9.848;2023-03-21T03:29:59;3.40;;;3.20;;
40501;SDS011;29631;49.168;9.848;2023-03-21T03:32:33;2.85;;;2.70;;
40501;SDS011;29631;49.168;9.848;2023-03-21T03:35:26;3.35;;;2.83;;
40501;SDS011;29631;49.168;9.848;2023-03-21T03:37:55;3.05;;;2.85;;
40501;SDS011;29631;49.168;9.848;2023-03-21T03:40:43;3.17;;;2.92;;
40501;SDS011;29631;49.168;9.848;2023-03-21T03:43:15;3.08;;;2.88;;
40501;SDS011;29631;49.168;9.848;2023-03-21T03:45:48;3.30;;;3.00;;
40501;SDS011;29631;49.168;9.848;2023-03-21T03:48:25;2.97;;;2.78;;
40501;SDS011;29631;49.168;9.848;2023-03-21T03:51:19;3.00;;;2.78;;
40501;SDS011;29631;49.168;9.848;2023-03-21T03:53:54;3.10;;;2.67;;
40501;SDS011;29631;49.168;9.848;2023-03-21T03:56:48;2.50;;;2.40;;
40501;SDS011;29631;49.168;9.848;2023-03-21T03:59:15;2.63;;;2.42;;
40501;SDS011;29631;49.168;9.848;2023-03-21T04:01:43;3.20;;;2.88;;
40501;SDS011;29631;49.168;9.848;2023-03-21T04:04:09;2.85;;;2.65;;
40501;SDS011;29631;49.168;9.848;2023-03-21T04:06:37;2.90;;;2.70;;
40501;SDS011;29631;49.168;9.848;2023-03-21T04:09:03;3.20;;;2.90;;
40501;SDS011;29631;49.168;9.848;2023-03-21T04:11:29;2.85;;;2.75;;
40501;SDS011;29631;49.168;9.848;2023-03-21T04:13:55;2.60;;;2.50;;
40501;SDS011;29631;49.168;9.848;2023-03-21T04:16:21;3.20;;;2.90;;
40501;SDS011;29631;49.168;9.848;2023-03-21T04:18:47;2.67;;;2.50;;
40501;SDS011;29631;49.168;9.848;2023-03-21T04:21:13;2.83;;;2.63;;
40501;SDS011;29631;49.168;9.848;2023-03-21T04:23:39;3.15;;;2.67;;
40501;SDS011;29631;49.168;9.848;2023-03-21T04:26:05;3.15;;;2.95;;
40501;SDS011;29631;49.168;9.848;2023-03-21T04:28:32;3.30;;;2.85;;
40501;SDS011;29631;49.168;9.848;2023-03-21T04:31:00;3.10;;;3.00;;
40501;SDS011;29631;49.168;9.848;2023-03-21T04:33:26;2.95;;;2.75;;
40501;SDS011;29631;49.168;9.848;2023-03-21T04:35:52;3.15;;;2.95;;
40501;SDS011;29631;49.168;9.848;2023-03-21T04:38:23;2.80;;;2.70;;
40501;SDS011;29631;49.168;9.848;2023-03-21T04:40:54;3.10;;;2.90;;
40501;SDS011;29631;49.168;9.848;2023-03-21T04:43:21;3.10;;;2.90;;
40501;SDS011;29631;49.168;9.848;2023-03-21T04:45:48;3.30;;;3.10;;
40501;SDS011;29631;49.168;9.848;2023-03-21T04:48:14;3.25;;;2.75;;
40501;SDS011;29631;49.168;9.848;2023-03-21T04:50:41;2.90;;;2.70;;
40501;SDS011;29631;49.168;9.848;2023-03-21T04:53:08;3.40;;;3.10;;
40501;SDS011;29631;49.168;9.848;2023-03-21T04:55:34;3.08;;;2.88;;
40501;SDS011;29631;49.168;9.848;2023-03-21T04:58:00;3.00;;;2.80;;
40501;SDS011;29631;49.168;9.848;2023-03-21T05:00:28;3.00;;;2.80;;
40501;SDS011;29631;49.168;9.848;2023-03-21T05:02:54;3.08;;;2.88;;
40501;SDS011;29631;49.168;9.848;2023-03-21T05:05:21;2.55;;;2.35;;
40501;SDS011;29631;49.168;9.848;2023-03-21T05:07:47;3.65;;;3.35;;
40501;SDS011;29631;49.168;9.848;2023-03-21T05:10:13;3.22;;;3.03;;
40501;SDS011;29631;49.168;9.848;2023-03-21T05:12:40;4.07;;;3.17;;
40501;SDS011;29631;49.168;9.848;2023-03-21T05:15:06;3.50;;;3.22;;
40501;SDS011;29631;49.168;9.848;2023-03-21T05:17:32;3.60;;;3.15;;
40501;SDS011;29631;49.168;9.848;2023-03-21T05:19:58;3.00;;;2.80;;
40501;SDS011;29631;49.168;9.848;2023-03-21T05:22:24;3.35;;;3.15;;
40501;SDS011;29631;49.168;9.848;2023-03-21T05:24:52;3.50;;;3.20;;
40501;SDS011;29631;49.168;9.848;2023-03-21T05:27:19;3.28;;;2.97;;
40501;SDS011;29631;49.168;9.848;2023-03-21T05:30:03;3.17;;;2.97;;
40501;SDS011;29631;49.168;9.848;2023-03-21T05:32:34;3.53;;;3.22;;
40501;SDS011;29631;49.168;9.848;2023-03-21T05:35:00;3.65;;;3.35;;
40501;SDS011;29631;49.168;9.848;2023-03-21T05:37:27;3.22;;;3.05;;
40501;SDS011;29631;49.168;9.848;2023-03-21T05:39:53;3.55;;;3.33;;
40501;SDS011;29631;49.168;9.848;2023-03-21T05:42:18;3.13;;;2.90;;
40501;SDS011;29631;49.168;9.848;2023-03-21T05:44:45;3.50;;;3.30;;
40501;SDS011;29631;49.168;9.848;2023-03-21T05:47:14;3.58;;;3.33;;
40501;SDS011;29631;49.168;9.848;2023-03-21T05:49:42;3.63;;;3.42;;
40501;SDS011;29631;49.168;9.848;2023-03-21T05:52:08;3.75;;;3.33;;
40501;SDS011;29631;49.168;9.848;2023-03-21T05:54:35;3.70;;;3.40;;
40501;SDS011;29631;49.168;9.848;2023-03-21T05:57:01;4.28;;;3.40;;
40501;SDS011;29631;49.168;9.848;2023-03-21T05:59:28;3.63;;;3.33;;
40501;SDS011;29631;49.168;9.848;2023-03-21T06:01:54;4.22;;;3.38;;
40501;SDS011;29631;49.168;9.848;2023-03-21T06:04:20;3.20;;;2.90;;
40501;SDS011;29631;49.168;9.848;2023-03-21T06:06:46;4.22;;;3.90;;
40501;SDS011;29631;49.168;9.848;2023-03-21T06:09:12;3.75;;;3.45;;
40501;SDS011;29631;49.168;9.848;2023-03-21T06:11:37;4.07;;;3.78;;
40501;SDS011;29631;49.168;9.848;2023-03-21T06:14:08;4.35;;;3.75;;
40501;SDS011;29631;49.168;9.848;2023-03-21T06:16:34;3.92;;;3.70;;
40501;SDS011;29631;49.168;9.848;2023-03-21T06:19:00;5.20;;;3.88;;
40501;SDS011;29631;49.168;9.848;2023-03-21T06:21:25;4.13;;;3.67;;
40501;SDS011;29631;49.168;9.848;2023-03-21T06:23:51;3.35;;;3.15;;
40501;SDS011;29631;49.168;9.848;2023-03-21T06:26:18;3.50;;;3.28;;
40501;SDS011;29631;49.168;9.848;2023-03-21T06:28:47;3.90;;;3.60;;
40501;SDS011;29631;49.168;9.848;2023-03-21T06:31:17;6.93;;;3.58;;
40501;SDS011;29631;49.168;9.848;2023-03-21T06:33:46;4.28;;;3.72;;
40501;SDS011;29631;49.168;9.848;2023-03-21T06:36:13;4.72;;;3.85;;
40501;SDS011;29631;49.168;9.848;2023-03-21T06:38:39;3.38;;;3.10;;
40501;SDS011;29631;49.168;9.848;2023-03-21T06:41:06;3.75;;;3.45;;
40501;SDS011;29631;49.168;9.848;2023-03-21T06:43:32;3.78;;;3.47;;
40501;SDS011;29631;49.168;9.848;2023-03-21T06:45:59;4.28;;;3.53;;
40501;SDS011;29631;49.168;9.848;2023-03-21T06:48:25;3.92;;;3.70;;
40501;SDS011;29631;49.168;9.848;2023-03-21T06:50:52;3.58;;;3.28;;
40501;SDS011;29631;49.168;9.848;2023-03-21T06:53:20;3.35;;;3.15;;
40501;SDS011;29631;49.168;9.848;2023-03-21T06:55:54;3.88;;;3.42;;
40501;SDS011;29631;49.168;9.848;2023-03-21T06:58:20;3.70;;;3.40;;
40501;SDS011;29631;49.168;9.848;2023-03-21T07:00:47;3.20;;;2.90;;
40501;SDS011;29631;49.168;9.848;2023-03-21T07:03:13;3.28;;;3.08;;
40501;SDS011;29631;49.168;9.848;2023-03-21T07:05:41;3.55;;;3.25;;
40501;SDS011;29631;49.168;9.848;2023-03-21T07:08:07;4.03;;;3.45;;
40501;SDS011;29631;49.168;9.848;2023-03-21T07:10:39;3.45;;;3.13;;
40501;SDS011;29631;49.168;9.848;2023-03-21T07:13:09;3.65;;;3.15;;
40501;SDS011;29631;49.168;9.848;2023-03-21T07:15:36;3.60;;;3.30;;
40501;SDS011;29631;49.168;9.848;2023-03-21T07:18:05;3.80;;;3.50;;
40501;SDS011;29631;49.168;9.848;2023-03-21T07:20:33;3.58;;;3.28;;
40501;SDS011;29631;49.168;9.848;2023-03-21T07:23:01;4.10;;;3.65;;
40501;SDS011;29631;49.168;9.848;2023-03-21T07:25:28;4.20;;;3.80;;
40501;SDS011;29631;49.168;9.848;2023-03-21T07:27:54;3.70;;;3.40;;
40501;SDS011;29631;49.168;9.848;2023-03-21T07:30:20;3.50;;;3.30;;
40501;SDS011;29631;49.168;9.848;2023-03-21T07:32:46;3.63;;;3.33;;
40501;SDS011;29631;49.168;9.848;2023-03-21T07:35:13;3.75;;;3.38;;
40501;SDS011;29631;49.168;9.848;2023-03-21T07:37:41;3.92;;;3.10;;
40501;SDS011;29631;49.168;9.848;2023-03-21T07:40:07;3.20;;;3.00;;
40501;SDS011;29631;49.168;9.848;2023-03-21T07:42:36;3.40;;;2.95;;
40501;SDS011;29631;49.168;9.848;2023-03-21T07:45:03;3.83;;;3.53;;
40501;SDS011;29631;49.168;9.848;2023-03-21T07:47:31;4.10;;;3.47;;
40501;SDS011;29631;49.168;9.848;2023-03-21T07:49:58;5.03;;;4.63;;
40501;SDS011;29631;49.168;9.848;2023-03-21T07:52:24;8.05;;;4.70;;
40501;SDS011;29631;49.168;9.848;2023-03-21T07:54:49;4.25;;;3.92;;
40501;SDS011;29631;49.168;9.848;2023-03-21T07:57:15;4.45;;;4.05;;
40501;SDS011;29631;49.168;9.848;2023-03-21T07:59:41;4.80;;;4.40;;
40501;SDS011;29631;49.168;9.848;2023-03-21T08:02:09;4.70;;;4.30;;
40501;SDS011;29631;49.168;9.848;2023-03-21T08:04:40;4.95;;;4.38;;
40501;SDS011;29631;49.168;9.848;2023-03-21T08:07:06;4.70;;;4.30;;
40501;SDS011;29631;49.168;9.848;2023-03-21T08:09:32;4.50;;;4.20;;
40501;SDS011;29631;49.168;9.848;2023-03-21T08:11:57;4.13;;;3.80;;
40501;SDS011;29631;49.168;9.848;2023-03-21T08:14:23;4.50;;;4.20;;
40501;SDS011;29631;49.168;9.848;2023-03-21T08:16:49;4.50;;;4.10;;
40501;SDS011;29631;49.168;9.848;2023-03-21T08:19:14;4.78;;;4.13;;
40501;SDS011;29631;49.168;9.848;2023-03-21T08:21:42;5.35;;;3.78;;
40501;SDS011;29631;49.168;9.848;2023-03-21T08:24:08;5.20;;;4.90;;
40501;SDS011;29631;49.168;9.848;2023-03-21T08:26:34;5.18;;;4.38;;
40501;SDS011;29631;49.168;9.848;2023-03-21T08:29:00;4.68;;;4.38;;
40501;SDS011;29631;49.168;9.848;2023-03-21T08:31:26;4.55;;;4.18;;
40501;SDS011;29631;49.168;9.848;2023-03-21T08:33:52;4.25;;;3.85;;
40501;SDS011;29631;49.168;9.848;2023-03-21T08:36:20;3.97;;;3.67;;
40501;SDS011;29631;49.168;9.848;2023-03-21T08:38:47;4.03;;;3.72;;
40501;SDS011;29631;49.168;9.848;2023-03-21T08:41:16;3.90;;;3.60;;
40501;SDS011;29631;49.168;9.848;2023-03-21T08:43:43;3.70;;;3.35;;
40501;SDS011;29631;49.168;9.848;2023-03-21T08:46:08;3.70;;;3.40;;
40501;SDS011;29631;49.168;9.848;2023-03-21T08:48:34;4.03;;;3.72;;
40501;SDS011;29631;49.168;9.848;2023-03-21T08:51:02;3.97;;;3.58;;
40501;SDS011;29631;49.168;9.848;2023-03-21T08:53:29;3.28;;;3.03;;
40501;SDS011;29631;49.168;9.848;2023-03-21T08:55:56;3.95;;;3.17;;
40501;SDS011;29631;49.168;9.848;2023-03-21T08:58:21;2.75;;;2.65;;
40501;SDS011;29631;49.168;9.848;2023-03-21T09:00:47;2.92;;;2.83;;
40501;SDS011;29631;49.168;9.848;2023-03-21T09:03:13;2.72;;;2.63;;
40501;SDS011;29631;49.168;9.848;2023-03-21T09:05:39;2.03;;;1.92;;
40501;SDS011;29631;49.168;9.848;2023-03-21T09:08:05;2.20;;;2.10;;
40501;SDS011;29631;49.168;9.848;2023-03-21T09:10:31;2.35;;;2.20;;
40501;SDS011;29631;49.168;9.848;2023-03-21T09:12:57;2.08;;;1.98;;
40501;SDS011;29631;49.168;9.848;2023-03-21T09:15:24;2.30;;;2.20;;
40501;SDS011;29631;49.168;9.848;2023-03-21T09:17:52;2.38;;;2.17;;
40501;SDS011;29631;49.168;9.848;2023-03-21T09:20:21;2.42;;;2.20;;
40501;SDS011;29631;49.168;9.848;2023-03-21T09:23:02;2.13;;;2.03;;
40501;SDS011;29631;49.168;9.848;2023-03-21T09:25:28;2.05;;;1.90;;
40501;SDS011;29631;49.168;9.848;2023-03-21T09:27:54;2.17;;;2.00;;
40501;SDS011;29631;49.168;9.848;2023-03-21T09:30:22;2.10;;;2.00;;
40501;SDS011;29631;49.168;9.848;2023-03-21T09:32:47;2.00;;;1.80;;
40501;SDS011;29631;49.168;9.848;2023-03-21T09:35:15;3.05;;;1.80;;
40501;SDS011;29631;49.168;9.848;2023-03-21T09:37:43;1.85;;;1.75;;
40501;SDS011;29631;49.168;9.848;2023-03-21T09:40:13;1.60;;;1.50;;
40501;SDS011;29631;49.168;9.848;2023-03-21T09:45:57;1.23;;;1.13;;
40501;SDS011;29631;49.168;9.848;2023-03-21T09:49:09;2.33;;;1.50;;
40501;SDS011;29631;49.168;9.848;2023-03-21T09:51:47;1.55;;;1.42;;
40501;SDS011;29631;49.168;9.848;2023-03-21T09:56:55;1.05;;;1.05;;
40501;SDS011;29631;49.168;9.848;2023-03-21T09:59:28;2.45;;;1.90;;
40501;SDS011;29631;49.168;9.848;2023-03-21T10:02:02;1.90;;;1.40;;
40501;SDS011;29631;49.168;9.848;2023-03-21T10:04:44;1.52;;;1.42;;
40501;SDS011;29631;49.168;9.848;2023-03-21T10:07:10;1.50;;;1.40;;
40501;SDS011;29631;49.168;9.848;2023-03-21T10:09:44;1.65;;;1.23;;
40501;SDS011;29631;49.168;9.848;2023-03-21T10:12:14;1.80;;;1.70;;
40501;SDS011;29631;49.168;9.848;2023-03-21T10:14:49;1.70;;;1.60;;
40501;SDS011;29631;49.168;9.848;2023-03-21T10:17:25;1.40;;;1.40;;
40501;SDS011;29631;49.168;9.848;2023-03-21T10:20:17;1.67;;;1.52;;
40501;SDS011;29631;49.168;9.848;2023-03-21T10:22:53;1.80;;;1.70;;
40501;SDS011;29631;49.168;9.848;2023-03-21T10:25:21;2.00;;;1.63;;
40501;SDS011;29631;49.168;9.848;2023-03-21T10:28:01;1.70;;;1.67;;
40501;SDS011;29631;49.168;9.848;2023-03-21T10:30:40;1.88;;;1.77;;
40501;SDS011;29631;49.168;9.848;2023-03-21T10:33:11;1.90;;;1.80;;
40501;SDS011;29631;49.168;9.848;2023-03-21T10:35:42;1.80;;;1.70;;
40501;SDS011;29631;49.168;9.848;2023-03-21T10:38:15;1.33;;;1.33;;
40501;SDS011;29631;49.168;9.848;2023-03-21T10:40:44;1.35;;;1.35;;
40501;SDS011;29631;49.168;9.848;2023-03-21T10:43:15;1.60;;;1.50;;
40501;SDS011;29631;49.168;9.848;2023-03-21T10:45:54;1.50;;;1.40;;
40501;SDS011;29631;49.168;9.848;2023-03-21T10:48:21;1.10;;;1.10;;
40501;SDS011;29631;49.168;9.848;2023-03-21T10:50:49;1.60;;;1.50;;
40501;SDS011;29631;49.168;9.848;2023-03-21T10:53:19;1.33;;;1.33;;
40501;SDS011;29631;49.168;9.848;2023-03-21T10:55:53;1.10;;;1.10;;
40501;SDS011;29631;49.168;9.848;2023-03-21T10:58:27;1.52;;;1.48;;
40501;SDS011;29631;49.168;9.848;2023-03-21T11:01:02;1.33;;;1.20;;
40501;SDS011;29631;49.168;9.848;2023-03-21T11:06:06;1.55;;;1.45;;
40501;SDS011;29631;49.168;9.848;2023-03-21T11:08:46;1.63;;;1.52;;
40501;SDS011;29631;49.168;9.848;2023-03-21T11:11:23;1.90;;;1.80;;
40501;SDS011;29631;49.168;9.848;2023-03-21T11:14:24;1.58;;;1.58;;
40501;SDS011;29631;49.168;9.848;2023-03-21T11:19:46;1.40;;;1.30;;
40501;SDS011;29631;49.168;9.848;2023-03-21T11:22:20;1.35;;;1.35;;
40501;SDS011;29631;49.168;9.848;2023-03-21T11:24:59;1.42;;;1.38;;
40501;SDS011;29631;49.168;9.848;2023-03-21T11:27:29;2.15;;;1.65;;
40501;SDS011;29631;49.168;9.848;2023-03-21T11:29:56;1.40;;;1.30;;
40501;SDS011;29631;49.168;9.848;2023-03-21T11:32:33;2.65;;;1.65;;
40501;SDS011;29631;49.168;9.848;2023-03-21T11:35:15;1.50;;;1.35;;
40501;SDS011;29631;49.168;9.848;2023-03-21T11:37:46;1.25;;;1.20;;
40501;SDS011;29631;49.168;9.848;2023-03-21T11:40:20;1.05;;;1.05;;
40501;SDS011;29631;49.168;9.848;2023-03-21T11:42:54;1.25;;;1.20;;
40501;SDS011;29631;49.168;9.848;2023-03-21T11:45:29;1.25;;;1.15;;
40501;SDS011;29631;49.168;9.848;2023-03-21T11:48:00;8.77;;;1.17;;
40501;SDS011;29631;49.168;9.848;2023-03-21T11:50:37;1.98;;;1.30;;
40501;SDS011;29631;49.168;9.848;2023-03-21T12:02:16;0.93;;;0.93;;
40501;SDS011;29631;49.168;9.848;2023-03-21T12:05:31;1.30;;;1.30;;
40501;SDS011;29631;49.168;9.848;2023-03-21T12:11:06;0.90;;;0.90;;
40501;SDS011;29631;49.168;9.848;2023-03-21T12:25:26;0.90;;;0.90;;
40501;SDS011;29631;49.168;9.848;2023-03-21T12:36:21;1.00;;;1.00;;
40501;SDS011;29631;49.168;9.848;2023-03-21T12:44:44;5.78;;;5.22;;
40501;SDS011;29631;49.168;9.848;2023-03-21T12:47:54;2.10;;;2.00;;
40501;SDS011;29631;49.168;9.848;2023-03-21T12:50:45;1.75;;;1.65;;
40501;SDS011;29631;49.168;9.848;2023-03-21T12:53:20;2.90;;;2.70;;
40501;SDS011;29631;49.168;9.848;2023-03-21T12:56:21;2.22;;;2.03;;
40501;SDS011;29631;49.168;9.848;2023-03-21T13:01:50;24.10;;;20.50;;
40501;SDS011;29631;49.168;9.848;2023-03-21T13:07:18;25.02;;;18.50;;
40501;SDS011;29631;49.168;9.848;2023-03-21T13:09:49;15.02;;;12.65;;
40501;SDS011;29631;49.168;9.848;2023-03-21T13:12:21;19.02;;;12.80;;
40501;SDS011;29631;49.168;9.848;2023-03-21T13:15:19;13.57;;;11.88;;
40501;SDS011;29631;49.168;9.848;2023-03-21T13:20:49;4.93;;;3.80;;
40501;SDS011;29631;49.168;9.848;2023-03-21T13:23:20;2.50;;;2.30;;
40501;SDS011;29631;49.168;9.848;2023-03-21T13:25:48;2.58;;;2.38;;
40501;SDS011;29631;49.168;9.848;2023-03-21T13:28:25;4.47;;;2.00;;
40501;SDS011;29631;49.168;9.848;2023-03-21T13:33:50;3.47;;;3.17;;
40501;SDS011;29631;49.168;9.848;2023-03-21T13:36:29;2.95;;;2.55;;
40501;SDS011;29631;49.168;9.848;2023-03-21T13:39:02;2.42;;;2.22;;
40501;SDS011;29631;49.168;9.848;2023-03-21T13:41:31;4.75;;;2.13;;
40501;SDS011;29631;49.168;9.848;2023-03-21T13:51:44;4.35;;;2.50;;
40501;SDS011;29631;49.168;9.848;2023-03-21T14:04:35;2.67;;;2.38;;
40501;SDS011;29631;49.168;9.848;2023-03-21T14:09:46;4.10;;;3.60;;
40501;SDS011;29631;49.168;9.848;2023-03-21T14:12:26;11.57;;;8.52;;
40501;SDS011;29631;49.168;9.848;2023-03-21T14:15:05;7.63;;;6.78;;
40501;SDS011;29631;49.168;9.848;2023-03-21T14:17:59;8.13;;;7.28;;
40501;SDS011;29631;49.168;9.848;2023-03-21T14:20:32;5.32;;;4.82;;
40501;SDS011;29631;49.168;9.848;2023-03-21T14:23:05;4.30;;;3.92;;
40501;SDS011;29631;49.168;9.848;2023-03-21T14:25:37;3.33;;;3.03;;
40501;SDS011;29631;49.168;9.848;2023-03-21T14:28:11;2.67;;;2.50;;
40501;SDS011;29631;49.168;9.848;2023-03-21T14:30:42;2.47;;;2.10;;
40501;SDS011;29631;49.168;9.848;2023-03-21T14:35:51;6.88;;;4.90;;
40501;SDS011;29631;49.168;9.848;2023-03-21T14:38:22;4.22;;;3.92;;
40501;SDS011;29631;49.168;9.848;2023-03-21T14:40:56;3.03;;;2.83;;
40501;SDS011;29631;49.168;9.848;2023-03-21T14:43:23;3.25;;;3.05;;
40501;SDS011;29631;49.168;9.848;2023-03-21T14:45:51;3.00;;;2.65;;
40501;SDS011;29631;49.168;9.848;2023-03-21T14:48:21;3.03;;;2.80;;
40501;SDS011;29631;49.168;9.848;2023-03-21T14:50:55;2.65;;;2.55;;
40501;SDS011;29631;49.168;9.848;2023-03-21T14:53:27;2.53;;;2.33;;
40501;SDS011;29631;49.168;9.848;2023-03-21T14:56:00;4.25;;;2.60;;
40501;SDS011;29631;49.168;9.848;2023-03-21T14:58:33;2.35;;;2.25;;
40501;SDS011;29631;49.168;9.848;2023-03-21T15:01:04;2.22;;;2.03;;
40501;SDS011;29631;49.168;9.848;2023-03-21T15:03:36;2.75;;;2.63;;
40501;SDS011;29631;49.168;9.848;2023-03-21T15:06:03;2.38;;;2.28;;
40501;SDS011;29631;49.168;9.848;2023-03-21T15:08:29;2.67;;;2.47;;
40501;SDS011;29631;49.168;9.848;2023-03-21T15:13:31;2.67;;;2.47;;
40501;SDS011;29631;49.168;9.848;2023-03-21T15:16:05;2.42;;;2.33;;
40501;SDS011;29631;49.168;9.848;2023-03-21T15:18:33;2.30;;;2.20;;
40501;SDS011;29631;49.168;9.848;2023-03-21T15:21:02;2.50;;;2.30;;
40501;SDS011;29631;49.168;9.848;2023-03-21T15:23:42;2.53;;;2.33;;
40501;SDS011;29631;49.168;9.848;2023-03-21T15:26:14;2.35;;;2.20;;
40501;SDS011;29631;49.168;9.848;2023-03-21T15:28:46;2.58;;;2.30;;
40501;SDS011;29631;49.168;9.848;2023-03-21T15:31:22;2.85;;;2.33;;
40501;SDS011;29631;49.168;9.848;2023-03-21T15:33:53;2.17;;;2.08;;
40501;SDS011;29631;49.168;9.848;2023-03-21T15:36:22;3.88;;;2.22;;
40501;SDS011;29631;49.168;9.848;2023-03-21T15:38:59;3.97;;;2.80;;
40501;SDS011;29631;49.168;9.848;2023-03-21T15:41:30;2.80;;;2.63;;
40501;SDS011;29631;49.168;9.848;2023-03-21T15:46:50;4.97;;;2.45;;
40501;SDS011;29631;49.168;9.848;2023-03-21T15:49:18;3.28;;;2.58;;
40501;SDS011;29631;49.168;9.848;2023-03-21T15:51:53;2.70;;;2.50;;
40501;SDS011;29631;49.168;9.848;2023-03-21T15:54:21;9.07;;;2.78;;
40501;SDS011;29631;49.168;9.848;2023-03-21T15:56:55;3.90;;;2.25;;
40501;SDS011;29631;49.168;9.848;2023-03-21T15:59:33;4.18;;;2.35;;
40501;SDS011;29631;49.168;9.848;2023-03-21T16:02:09;4.00;;;2.70;;
40501;SDS011;29631;49.168;9.848;2023-03-21T16:04:57;3.92;;;2.97;;
40501;SDS011;29631;49.168;9.848;2023-03-21T16:07:46;3.00;;;2.80;;
40501;SDS011;29631;49.168;9.848;2023-03-21T16:13:01;5.28;;;2.50;;
40501;SDS011;29631;49.168;9.848;2023-03-21T16:15:27;6.53;;;2.90;;
40501;SDS011;29631;49.168;9.848;2023-03-21T16:17:54;2.50;;;2.30;;
40501;SDS011;29631;49.168;9.848;2023-03-21T16:20:26;4.28;;;2.58;;
40501;SDS011;29631;49.168;9.848;2023-03-21T16:22:56;2.60;;;2.40;;
40501;SDS011;29631;49.168;9.848;2023-03-21T16:25:22;3.40;;;2.50;;
40501;SDS011;29631;49.168;9.848;2023-03-21T16:27:49;3.38;;;3.00;;
40501;SDS011;29631;49.168;9.848;2023-03-21T16:30:16;3.17;;;2.95;;
40501;SDS011;29631;49.168;9.848;2023-03-21T16:32:44;3.00;;;2.80;;
40501;SDS011;29631;49.168;9.848;2023-03-21T16:35:11;2.58;;;2.38;;
40501;SDS011;29631;49.168;9.848;2023-03-21T16:37:37;3.72;;;2.72;;
40501;SDS011;29631;49.168;9.848;2023-03-21T16:40:05;3.95;;;2.53;;
40501;SDS011;29631;49.168;9.848;2023-03-21T16:42:58;2.58;;;2.40;;
40501;SDS011;29631;49.168;9.848;2023-03-21T16:45:25;3.28;;;2.83;;
40501;SDS011;29631;49.168;9.848;2023-03-21T16:47:52;3.83;;;2.53;;
40501;SDS011;29631;49.168;9.848;2023-03-21T16:50:31;3.00;;;2.80;;
40501;SDS011;29631;49.168;9.848;2023-03-21T16:53:05;4.43;;;3.10;;
40501;SDS011;29631;49.168;9.848;2023-03-21T16:55:30;3.17;;;2.90;;
40501;SDS011;29631;49.168;9.848;2023-03-21T16:57:57;6.28;;;3.10;;
40501;SDS011;29631;49.168;9.848;2023-03-21T17:00:24;4.18;;;2.92;;
40501;SDS011;29631;49.168;9.848;2023-03-21T17:02:54;3.10;;;2.90;;
40501;SDS011;29631;49.168;9.848;2023-03-21T17:05:25;4.43;;;3.00;;
40501;SDS011;29631;49.168;9.848;2023-03-21T17:07:54;4.15;;;2.83;;
40501;SDS011;29631;49.168;9.848;2023-03-21T17:10:22;2.85;;;2.65;;
40501;SDS011;29631;49.168;9.848;2023-03-21T17:12:51;3.08;;;2.88;;
40501;SDS011;29631;49.168;9.848;2023-03-21T17:15:17;2.80;;;2.60;;